createdAt,value
2018-04-29T00:00:44.283Z,46.62
2018-04-29T00:01:44.312Z,46.81
2018-04-29T00:02:44.342Z,46.53
2018-04-29T00:03:44.336Z,46.53
2018-04-29T00:04:44.332Z,46.91
2018-04-29T00:05:44.353Z,46.53
2018-04-29T00:06:44.358Z,46.72
2018-04-29T00:07:44.424Z,46.62
2018-04-29T00:08:44.386Z,46.62
2018-04-29T00:09:44.433Z,46.31
2018-04-29T00:10:44.449Z,46.31
2018-04-29T00:11:44.418Z,46.69
2018-04-29T00:12:44.431Z,46.79
2018-04-29T00:13:44.447Z,46.79
2018-04-29T00:14:44.514Z,47.08
2018-04-29T00:15:44.487Z,47.27
2018-04-29T00:16:44.493Z,47.17
2018-04-29T00:17:44.506Z,47.17
2018-04-29T00:18:44.506Z,47.08
2018-04-29T00:19:44.576Z,47.75
2018-04-29T00:20:44.551Z,47.36
2018-04-29T00:21:44.554Z,47.56
2018-04-29T00:22:44.561Z,47.36
2018-04-29T00:23:44.591Z,47.46
2018-04-29T00:24:44.621Z,47.66
2018-04-29T00:25:44.620Z,47.27
2018-04-29T00:26:44.610Z,47.36
2018-04-29T00:27:44.640Z,47.46
2018-04-29T00:28:44.639Z,47.66
2018-04-29T00:29:44.701Z,47.94
2018-04-29T00:30:44.656Z,47.75
2018-04-29T00:31:44.670Z,47.46
2018-04-29T00:32:44.687Z,47.46
2018-04-29T00:33:44.695Z,47.56
2018-04-29T00:34:45.040Z,47.56
2018-04-29T00:35:44.719Z,47.75
2018-04-29T00:36:44.772Z,47.66
2018-04-29T00:37:44.751Z,47.56
2018-04-29T00:38:44.761Z,47.75
2018-04-29T00:39:44.781Z,46.79
2018-04-29T00:40:44.829Z,46.79
2018-04-29T00:41:44.795Z,47.66
2018-04-29T00:42:44.834Z,46.98
2018-04-29T00:43:44.820Z,47.75
2018-04-29T00:44:44.831Z,47.66
2018-04-29T00:45:44.880Z,47.17
2018-04-29T00:46:44.862Z,47.17
2018-04-29T00:47:44.893Z,47.08
2018-04-29T00:48:44.902Z,46.89
2018-04-29T00:49:44.905Z,47.17
2018-04-29T00:50:44.957Z,46.79
2018-04-29T00:51:44.949Z,47.27
2018-04-29T00:52:44.934Z,47.66
2018-04-29T00:53:44.943Z,47.56
2018-04-29T00:54:44.961Z,47.36
2018-04-29T00:55:45.013Z,47.66
2018-04-29T00:56:44.993Z,47.75
2018-04-29T00:57:45.026Z,47.46
2018-04-29T00:58:45.021Z,47.46
2018-04-29T00:59:45.021Z,47.56
2018-04-29T01:00:45.031Z,47.46
2018-04-29T01:01:45.076Z,47.36
2018-04-29T01:02:45.085Z,47.46
2018-04-29T01:03:45.114Z,47.66
2018-04-29T01:04:45.093Z,47.94
2018-04-29T01:05:45.094Z,48.04
2018-04-29T01:06:45.119Z,47.85
2018-04-29T01:07:45.129Z,48.90
2018-04-29T01:08:45.167Z,48.43
2018-04-29T01:09:45.152Z,48.33
2018-04-29T01:10:45.173Z,48.61
2018-04-29T01:11:45.183Z,48.61
2018-04-29T01:12:45.193Z,48.71
2018-04-29T01:13:45.255Z,48.33
2018-04-29T01:14:45.211Z,48.33
2018-04-29T01:15:45.232Z,48.23
2018-04-29T01:16:45.243Z,48.90
2018-04-29T01:17:45.296Z,48.52
2018-04-29T01:18:45.304Z,48.23
2018-04-29T01:19:45.279Z,48.04
2018-04-29T01:20:45.316Z,48.43
2018-04-29T01:21:45.319Z,48.61
2018-04-29T01:22:45.320Z,48.13
2018-04-29T01:23:45.363Z,48.71
2018-04-29T01:24:45.335Z,48.52
2018-04-29T01:25:45.348Z,48.43
2018-04-29T01:26:45.410Z,48.81
2018-04-29T01:27:45.370Z,48.90
2018-04-29T01:28:45.398Z,49.48
2018-04-29T01:29:45.400Z,49.38
2018-04-29T01:30:45.426Z,48.71
2018-04-29T01:31:45.483Z,48.81
2018-04-29T01:32:45.482Z,49.00
2018-04-29T01:33:45.457Z,49.00
2018-04-29T01:34:45.454Z,49.77
2018-04-29T01:35:45.502Z,49.57
2018-04-29T01:36:45.489Z,49.67
2018-04-29T01:37:45.533Z,49.67
2018-04-29T01:38:45.544Z,49.48
2018-04-29T01:39:45.529Z,49.19
2018-04-29T01:40:45.538Z,49.57
2018-04-29T01:41:45.544Z,49.57
2018-04-29T01:42:45.570Z,49.67
2018-04-29T01:43:45.588Z,49.29
2018-04-29T01:44:45.595Z,49.19
2018-04-29T01:45:45.639Z,49.29
2018-04-29T01:46:45.638Z,49.48
2018-04-29T01:47:45.630Z,49.19
2018-04-29T01:48:45.632Z,49.38
2018-04-29T01:49:45.641Z,49.48
2018-04-29T01:50:45.707Z,48.90
2018-04-29T01:51:45.750Z,48.43
2018-04-29T01:52:45.696Z,49.10
2018-04-29T01:53:45.694Z,48.61
2018-04-29T01:54:45.705Z,48.52
2018-04-29T01:55:45.747Z,48.43
2018-04-29T01:56:45.730Z,49.19
2018-04-29T01:57:45.777Z,49.19
2018-04-29T01:58:45.755Z,49.87
2018-04-29T01:59:45.806Z,49.77
2018-04-29T02:00:45.790Z,49.19
2018-04-29T02:01:45.864Z,49.77
2018-04-29T02:02:45.805Z,49.19
2018-04-29T02:03:45.826Z,49.29
2018-04-29T02:04:45.836Z,49.29
2018-04-29T02:05:45.854Z,49.77
2018-04-29T02:06:45.881Z,49.29
2018-04-29T02:07:45.866Z,49.29
2018-04-29T02:08:45.891Z,49.87
2018-04-29T02:09:45.898Z,49.84
2018-04-29T02:10:45.964Z,49.26
2018-04-29T02:11:45.975Z,49.36
2018-04-29T02:12:45.938Z,49.46
2018-04-29T02:13:45.944Z,49.74
2018-04-29T02:14:45.966Z,49.17
2018-04-29T02:15:45.983Z,49.74
2018-04-29T02:16:46.013Z,49.17
2018-04-29T02:17:45.989Z,49.65
2018-04-29T02:18:46.022Z,49.17
2018-04-29T02:19:46.075Z,49.17
2018-04-29T02:20:46.030Z,49.26
2018-04-29T02:21:46.055Z,49.26
2018-04-29T02:22:46.051Z,49.17
2018-04-29T02:23:46.085Z,49.74
2018-04-29T02:24:46.114Z,49.74
2018-04-29T02:25:46.136Z,49.26
2018-04-29T02:26:46.117Z,49.17
2018-04-29T02:27:46.126Z,49.55
2018-04-29T02:28:46.140Z,49.36
2018-04-29T02:29:46.142Z,49.36
2018-04-29T02:30:46.205Z,49.65
2018-04-29T02:31:46.214Z,49.84
2018-04-29T02:32:46.184Z,49.93
2018-04-29T02:33:46.188Z,50.03
2018-04-29T02:34:46.213Z,49.74
2018-04-29T02:35:46.237Z,49.93
2018-04-29T02:36:46.232Z,50.03
2018-04-29T02:37:46.285Z,49.93
2018-04-29T02:38:46.258Z,50.13
2018-04-29T02:39:46.272Z,50.03
2018-04-29T02:40:46.277Z,50.01
2018-04-29T02:41:46.316Z,49.74
2018-04-29T02:42:46.342Z,49.84
2018-04-29T02:43:46.317Z,50.01
2018-04-29T02:44:46.324Z,50.39
2018-04-29T02:45:46.345Z,50.49
2018-04-29T02:46:46.361Z,50.68
2018-04-29T02:47:46.399Z,50.78
2018-04-29T02:48:46.375Z,50.87
2018-04-29T02:49:46.384Z,51.25
2018-04-29T02:50:46.405Z,51.45
2018-04-29T02:51:46.408Z,51.25
2018-04-29T02:52:46.454Z,51.35
2018-04-29T02:53:46.445Z,51.45
2018-04-29T02:54:46.454Z,51.45
2018-04-29T02:55:46.454Z,51.45
2018-04-29T02:56:46.467Z,51.54
2018-04-29T02:57:46.520Z,51.54
2018-04-29T02:58:46.532Z,51.54
2018-04-29T02:59:46.515Z,51.73
2018-04-29T03:00:46.581Z,51.83
2018-04-29T03:01:46.529Z,51.73
2018-04-29T03:02:46.540Z,52.12
2018-04-29T03:03:46.565Z,52.02
2018-04-29T03:04:46.565Z,52.50
2018-04-29T03:05:46.609Z,52.22
2018-04-29T03:06:46.712Z,52.60
2018-04-29T03:07:46.633Z,52.60
2018-04-29T03:08:46.611Z,52.40
2018-04-29T03:09:46.624Z,52.86
2018-04-29T03:10:46.646Z,52.38
2018-04-29T03:11:46.645Z,52.67
2018-04-29T03:12:46.711Z,52.38
2018-04-29T03:13:46.682Z,52.48
2018-04-29T03:14:46.702Z,52.67
2018-04-29T03:15:46.767Z,52.67
2018-04-29T03:16:46.717Z,52.38
2018-04-29T03:17:46.746Z,52.28
2018-04-29T03:18:46.764Z,52.95
2018-04-29T03:19:46.753Z,52.48
2018-04-29T03:20:46.754Z,52.67
2018-04-29T03:21:46.775Z,52.67
2018-04-29T03:22:46.782Z,52.95
2018-04-29T03:23:46.824Z,53.34
2018-04-29T03:24:46.814Z,53.53
2018-04-29T03:25:46.826Z,52.76
2018-04-29T03:26:46.827Z,53.24
2018-04-29T03:27:46.837Z,54.01
2018-04-29T03:28:46.884Z,54.39
2018-04-29T03:29:46.894Z,54.49
2018-04-29T03:30:46.879Z,54.01
2018-04-29T03:31:46.898Z,54.49
2018-04-29T03:32:46.898Z,54.49
2018-04-29T03:33:46.962Z,54.78
2018-04-29T03:34:46.921Z,54.97
2018-04-29T03:35:46.945Z,54.39
2018-04-29T03:36:46.950Z,54.68
2018-04-29T03:37:46.965Z,54.58
2018-04-29T03:38:46.999Z,54.68
2018-04-29T03:39:46.982Z,54.97
2018-04-29T03:40:47.036Z,54.49
2018-04-29T03:41:47.013Z,54.68
2018-04-29T03:42:47.021Z,54.08
2018-04-29T03:43:47.037Z,54.01
2018-04-29T03:44:47.065Z,53.99
2018-04-29T03:45:47.080Z,54.46
2018-04-29T03:46:47.070Z,54.21
2018-04-29T03:47:47.072Z,54.39
2018-04-29T03:48:47.096Z,54.58
2018-04-29T03:49:47.146Z,54.49
2018-04-29T03:50:47.116Z,54.17
2018-04-29T03:51:47.141Z,54.39
2018-04-29T03:52:47.137Z,54.39
2018-04-29T03:53:47.150Z,54.49
2018-04-29T03:54:47.220Z,54.88
2018-04-29T03:55:47.174Z,54.97
2018-04-29T03:56:47.191Z,54.58
2018-04-29T03:57:47.187Z,54.88
2018-04-29T03:58:47.206Z,54.97
2018-04-29T03:59:47.225Z,54.49
2018-04-29T04:00:47.256Z,54.68
2018-04-29T04:01:51.281Z,54.58
2018-04-29T04:02:47.334Z,54.11
2018-04-29T04:03:47.265Z,54.30
2018-04-29T04:04:47.276Z,53.91
2018-04-29T04:05:47.301Z,54.11
2018-04-29T04:06:47.326Z,54.21
2018-04-29T04:07:47.346Z,54.11
2018-04-29T04:08:47.318Z,53.82
2018-04-29T04:09:47.378Z,53.91
2018-04-29T04:10:47.341Z,54.11
2018-04-29T04:11:47.351Z,54.01
2018-04-29T04:12:47.403Z,54.39
2018-04-29T04:13:47.396Z,53.82
2018-04-29T04:14:47.393Z,53.72
2018-04-29T04:15:47.454Z,54.49
2018-04-29T04:16:47.425Z,54.01
2018-04-29T04:17:47.444Z,54.39
2018-04-29T04:18:47.446Z,54.30
2018-04-29T04:19:47.457Z,53.24
2018-04-29T04:20:47.510Z,53.34
2018-04-29T04:21:47.483Z,53.53
2018-04-29T04:22:47.494Z,53.44
2018-04-29T04:23:47.536Z,53.63
2018-04-29T04:24:47.535Z,53.34
2018-04-29T04:25:47.570Z,53.53
2018-04-29T04:26:47.532Z,53.63
2018-04-29T04:27:47.553Z,53.72
2018-04-29T04:28:47.592Z,53.72
2018-04-29T04:29:47.575Z,53.53
2018-04-29T04:30:47.634Z,53.24
2018-04-29T04:31:47.591Z,54.01
2018-04-29T04:32:47.613Z,54.11
2018-04-29T04:33:47.650Z,54.30
2018-04-29T04:34:47.626Z,54.11
2018-04-29T04:35:47.660Z,54.04
2018-04-29T04:36:47.668Z,54.23
2018-04-29T04:37:47.675Z,54.04
2018-04-29T04:38:47.717Z,54.13
2018-04-29T04:39:47.701Z,54.13
2018-04-29T04:40:47.698Z,54.23
2018-04-29T04:41:47.710Z,53.85
2018-04-29T04:42:47.732Z,53.94
2018-04-29T04:43:47.771Z,53.94
2018-04-29T04:44:47.792Z,53.46
2018-04-29T04:45:47.764Z,53.66
2018-04-29T04:46:47.779Z,53.08
2018-04-29T04:47:47.779Z,52.98
2018-04-29T04:48:47.796Z,52.31
2018-04-29T04:49:47.845Z,52.50
2018-04-29T04:50:47.848Z,52.50
2018-04-29T04:51:47.844Z,52.31
2018-04-29T04:52:47.852Z,52.60
2018-04-29T04:53:47.881Z,52.34
2018-04-29T04:54:47.893Z,52.72
2018-04-29T04:55:47.918Z,52.91
2018-04-29T04:56:47.906Z,52.62
2018-04-29T04:57:47.965Z,52.53
2018-04-29T04:58:47.926Z,52.62
2018-04-29T04:59:47.923Z,51.98
2018-04-29T05:00:47.938Z,52.17
2018-04-29T05:01:47.971Z,51.88
2018-04-29T05:02:48.005Z,51.79
2018-04-29T05:03:48.023Z,51.59
2018-04-29T05:04:47.987Z,50.92
2018-04-29T05:05:48.011Z,50.27
2018-04-29T05:06:48.022Z,50.76
2018-04-29T05:07:48.041Z,49.99
2018-04-29T05:08:48.078Z,49.69
2018-04-29T05:09:48.108Z,49.31
2018-04-29T05:10:48.074Z,49.12
2018-04-29T05:11:48.088Z,49.31
2018-04-29T05:12:48.103Z,49.60
2018-04-29T05:13:48.111Z,49.22
2018-04-29T05:14:48.135Z,49.51
2018-04-29T05:15:48.195Z,49.05
2018-04-29T05:16:48.150Z,48.57
2018-04-29T05:17:48.152Z,48.85
2018-04-29T05:18:48.177Z,48.49
2018-04-29T05:19:48.204Z,47.63
2018-04-29T05:20:48.236Z,47.56
2018-04-29T05:21:48.215Z,47.08
2018-04-29T05:22:48.225Z,46.81
2018-04-29T05:23:48.252Z,46.15
2018-04-29T05:24:48.249Z,45.58
2018-04-29T05:25:48.293Z,44.73
2018-04-29T05:26:48.279Z,43.12
2018-04-29T05:27:48.278Z,41.78
2018-04-29T05:28:48.305Z,41.71
2018-04-29T05:29:48.317Z,40.75
2018-04-29T05:30:48.375Z,41.33
2018-04-29T05:31:48.348Z,40.57
2018-04-29T05:32:48.347Z,39.82
2018-04-29T05:33:48.363Z,39.45
2018-04-29T05:34:48.402Z,39.06
2018-04-29T05:35:48.426Z,38.89
2018-04-29T05:36:48.439Z,38.89
2018-04-29T05:37:48.433Z,38.21
2018-04-29T05:38:48.469Z,37.46
2018-04-29T05:39:48.482Z,36.98
2018-04-29T05:40:48.501Z,36.68
2018-04-29T05:41:48.480Z,35.72
2018-04-29T05:42:48.502Z,36.20
2018-04-29T05:43:48.508Z,36.30
2018-04-29T05:44:48.530Z,36.49
2018-04-29T05:45:48.590Z,36.49
2018-04-29T05:46:48.566Z,36.58
2018-04-29T05:47:48.584Z,36.08
2018-04-29T05:48:48.589Z,35.99
2018-04-29T05:49:48.654Z,36.47
2018-04-29T05:50:48.678Z,36.94
2018-04-29T05:51:48.715Z,36.74
2018-04-29T05:52:48.651Z,37.04
2018-04-29T05:53:48.666Z,37.50
2018-04-29T05:54:48.693Z,37.40
2018-04-29T05:55:48.698Z,37.77
2018-04-29T05:56:48.746Z,38.25
2018-04-29T05:57:48.747Z,39.11
2018-04-29T05:58:48.754Z,39.11
2018-04-29T05:59:48.771Z,39.59
2018-04-29T06:00:48.811Z,39.59
2018-04-29T06:01:48.799Z,39.78
2018-04-29T06:02:48.815Z,40.24
2018-04-29T06:03:48.820Z,40.34
2018-04-29T06:04:48.858Z,40.45
2018-04-29T06:05:48.891Z,40.26
2018-04-29T06:06:48.868Z,40.45
2018-04-29T06:07:48.877Z,40.63
2018-04-29T06:08:48.926Z,40.63
2018-04-29T06:09:48.916Z,40.82
2018-04-29T06:10:49.018Z,40.63
2018-04-29T06:11:48.947Z,40.80
2018-04-29T06:12:48.987Z,41.19
2018-04-29T06:13:48.971Z,40.99
2018-04-29T06:14:48.998Z,41.48
2018-04-29T06:15:49.010Z,40.97
2018-04-29T06:16:49.017Z,40.88
2018-04-29T06:17:49.063Z,41.17
2018-04-29T06:18:49.047Z,41.07
2018-04-29T06:19:49.081Z,41.27
2018-04-29T06:20:49.077Z,40.97
2018-04-29T06:21:49.075Z,41.84
2018-04-29T06:22:49.147Z,41.75
2018-04-29T06:23:49.110Z,42.23
2018-04-29T06:24:49.125Z,41.75
2018-04-29T06:25:49.138Z,42.32
2018-04-29T06:26:49.184Z,42.32
2018-04-29T06:27:49.208Z,41.65
2018-04-29T06:28:49.187Z,41.84
2018-04-29T06:29:49.216Z,41.36
2018-04-29T06:30:49.268Z,40.61
2018-04-29T06:31:49.236Z,40.97
2018-04-29T06:32:49.284Z,41.19
2018-04-29T06:33:49.245Z,40.78
2018-04-29T06:34:49.296Z,41.07
2018-04-29T06:35:49.284Z,41.17
2018-04-29T06:36:49.289Z,40.97
2018-04-29T06:37:49.338Z,41.05
2018-04-29T06:38:49.320Z,41.14
2018-04-29T06:39:49.338Z,41.24
2018-04-29T06:40:49.356Z,41.34
2018-04-29T06:41:49.387Z,41.14
2018-04-29T06:42:49.432Z,41.63
2018-04-29T06:43:49.401Z,41.72
2018-04-29T06:44:49.411Z,41.80
2018-04-29T06:45:49.437Z,41.99
2018-04-29T06:46:49.456Z,42.09
2018-04-29T06:47:49.482Z,42.28
2018-04-29T06:48:49.483Z,41.80
2018-04-29T06:49:49.483Z,42.09
2018-04-29T06:50:49.539Z,42.09
2018-04-29T06:51:49.496Z,41.71
2018-04-29T06:52:49.522Z,42.57
2018-04-29T06:53:49.532Z,43.15
2018-04-29T06:54:49.548Z,42.09
2018-04-29T06:55:49.609Z,42.19
2018-04-29T06:56:49.580Z,42.47
2018-04-29T06:57:49.580Z,42.76
2018-04-29T06:58:49.591Z,42.47
2018-04-29T06:59:49.605Z,42.28
2018-04-29T07:00:49.677Z,42.19
2018-04-29T07:01:49.643Z,42.36
2018-04-29T07:02:49.659Z,41.68
2018-04-29T07:03:49.701Z,42.16
2018-04-29T07:04:49.674Z,42.26
2018-04-29T07:05:49.690Z,41.88
2018-04-29T07:06:49.701Z,42.16
2018-04-29T07:07:49.740Z,42.33
2018-04-29T07:08:49.774Z,43.11
2018-04-29T07:09:49.757Z,43.03
2018-04-29T07:10:49.757Z,43.32
2018-04-29T07:11:49.803Z,43.41
2018-04-29T07:12:49.783Z,43.23
2018-04-29T07:13:49.844Z,43.51
2018-04-29T07:14:49.812Z,42.36
2018-04-29T07:15:49.823Z,42.65
2018-04-29T07:16:49.838Z,42.65
2018-04-29T07:17:49.851Z,42.84
2018-04-29T07:18:49.891Z,43.01
2018-04-29T07:19:49.879Z,42.82
2018-04-29T07:20:49.908Z,43.13
2018-04-29T07:21:49.936Z,43.23
2018-04-29T07:22:49.928Z,43.51
2018-04-29T07:23:49.990Z,43.32
2018-04-29T07:24:49.944Z,43.49
2018-04-29T07:25:49.975Z,43.11
2018-04-29T07:26:49.998Z,43.20
2018-04-29T07:27:50.002Z,43.01
2018-04-29T07:28:50.031Z,43.30
2018-04-29T07:29:50.016Z,42.82
2018-04-29T07:30:50.038Z,43.01
2018-04-29T07:31:50.041Z,43.01
2018-04-29T07:32:50.061Z,43.59
2018-04-29T07:33:50.100Z,43.49
2018-04-29T07:34:50.093Z,43.68
2018-04-29T07:35:50.101Z,43.78
2018-04-29T07:36:50.156Z,43.68
2018-04-29T07:37:50.155Z,43.88
2018-04-29T07:38:50.135Z,44.17
2018-04-29T07:39:50.150Z,43.88
2018-04-29T07:40:50.166Z,43.88
2018-04-29T07:41:50.235Z,44.09
2018-04-29T07:42:50.203Z,43.99
2018-04-29T07:43:50.248Z,44.09
2018-04-29T07:44:50.228Z,43.90
2018-04-29T07:45:50.263Z,43.23
2018-04-29T07:46:50.260Z,43.13
2018-04-29T07:47:50.275Z,43.41
2018-04-29T07:48:50.332Z,43.23
2018-04-29T07:49:50.351Z,43.23
2018-04-29T07:50:50.314Z,42.36
2018-04-29T07:51:50.316Z,42.36
2018-04-29T07:52:50.347Z,43.41
2018-04-29T07:53:50.370Z,42.74
2018-04-29T07:54:50.385Z,42.46
2018-04-29T07:55:50.399Z,43.23
2018-04-29T07:56:50.400Z,43.41
2018-04-29T07:57:50.410Z,42.46
2018-04-29T07:58:50.417Z,43.41
2018-04-29T07:59:50.420Z,43.41
2018-04-29T08:00:50.552Z,43.23
2018-04-29T08:01:50.478Z,42.46
2018-04-29T08:02:50.482Z,41.97
2018-04-29T08:03:50.544Z,41.88
2018-04-29T08:04:50.489Z,42.36
2018-04-29T08:05:50.504Z,42.57
2018-04-29T08:06:50.563Z,41.88
2018-04-29T08:07:50.540Z,41.71
2018-04-29T08:08:50.581Z,41.88
2018-04-29T08:09:50.686Z,41.68
2018-04-29T08:10:50.579Z,41.20
2018-04-29T08:11:50.606Z,42.38
2018-04-29T08:12:50.611Z,40.84
2018-04-29T08:13:50.627Z,40.94
2018-04-29T08:14:50.676Z,41.80
2018-04-29T08:15:50.685Z,41.51
2018-04-29T08:16:50.663Z,41.13
2018-04-29T08:17:50.671Z,40.81
2018-04-29T08:18:50.699Z,41.11
2018-04-29T08:19:50.702Z,41.11
2018-04-29T08:20:50.774Z,40.53
2018-04-29T08:21:50.724Z,41.30
2018-04-29T08:22:50.747Z,41.03
2018-04-29T08:23:50.748Z,40.94
2018-04-29T08:24:50.785Z,40.64
2018-04-29T08:25:50.828Z,40.43
2018-04-29T08:26:50.797Z,41.13
2018-04-29T08:27:50.895Z,40.94
2018-04-29T08:28:50.821Z,40.74
2018-04-29T08:29:50.876Z,40.84
2018-04-29T08:30:50.862Z,40.84
2018-04-29T08:31:50.878Z,40.45
2018-04-29T08:32:50.886Z,40.55
2018-04-29T08:33:50.892Z,40.74
2018-04-29T08:34:50.963Z,40.07
2018-04-29T08:35:50.919Z,39.78
2018-04-29T08:36:50.951Z,39.39
2018-04-29T08:37:50.961Z,40.53
2018-04-29T08:38:50.962Z,40.72
2018-04-29T08:39:51.009Z,40.91
2018-04-29T08:40:51.017Z,41.11
2018-04-29T08:41:51.022Z,40.63
2018-04-29T08:42:51.017Z,40.91
2018-04-29T08:43:51.039Z,41.30
2018-04-29T08:44:51.131Z,41.18
2018-04-29T08:45:51.073Z,41.39
2018-04-29T08:46:51.107Z,42.26
2018-04-29T08:47:51.090Z,41.97
2018-04-29T08:48:51.100Z,41.66
2018-04-29T08:49:51.152Z,42.16
2018-04-29T08:50:51.126Z,40.72
2018-04-29T08:51:51.153Z,40.70
2018-04-29T08:52:51.168Z,41.08
2018-04-29T08:53:51.203Z,41.38
2018-04-29T08:54:51.204Z,41.18
2018-04-29T08:55:51.216Z,41.66
2018-04-29T08:56:51.216Z,41.86
2018-04-29T08:57:51.264Z,42.16
2018-04-29T08:58:51.235Z,43.41
2018-04-29T08:59:51.267Z,43.41
2018-04-29T09:00:51.285Z,43.51
2018-04-29T09:01:51.308Z,43.71
2018-04-29T09:02:51.317Z,43.71
2018-04-29T09:03:51.364Z,43.80
2018-04-29T09:04:51.322Z,44.28
2018-04-29T09:05:51.331Z,44.96
2018-04-29T09:06:51.387Z,44.67
2018-04-29T09:07:51.405Z,45.44
2018-04-29T09:08:51.393Z,45.34
2018-04-29T09:09:51.395Z,45.53
2018-04-29T09:10:51.401Z,45.63
2018-04-29T09:11:51.411Z,45.63
2018-04-29T09:12:51.486Z,45.83
2018-04-29T09:13:51.465Z,46.31
2018-04-29T09:14:51.540Z,46.50
2018-04-29T09:15:51.482Z,46.59
2018-04-29T09:16:51.533Z,47.27
2018-04-29T09:17:51.560Z,47.36
2018-04-29T09:18:51.541Z,47.27
2018-04-29T09:19:51.526Z,47.36
2018-04-29T09:20:51.534Z,45.83
2018-04-29T09:21:51.582Z,45.53
2018-04-29T09:22:51.607Z,45.83
2018-04-29T09:23:51.595Z,46.01
2018-04-29T09:24:51.607Z,47.27
2018-04-29T09:25:51.613Z,46.11
2018-04-29T09:26:51.617Z,45.92
2018-04-29T09:27:51.660Z,46.78
2018-04-29T09:28:51.673Z,46.98
2018-04-29T09:29:51.683Z,46.50
2018-04-29T09:30:51.703Z,46.31
2018-04-29T09:31:51.718Z,45.44
2018-04-29T09:32:51.715Z,45.44
2018-04-29T09:33:51.720Z,45.44
2018-04-29T09:34:51.796Z,45.15
2018-04-29T09:35:51.772Z,45.05
2018-04-29T09:36:51.808Z,45.15
2018-04-29T09:37:51.784Z,45.15
2018-04-29T09:38:51.795Z,44.96
2018-04-29T09:39:51.814Z,44.96
2018-04-29T09:40:51.873Z,41.59
2018-04-29T09:41:51.843Z,41.11
2018-04-29T09:42:51.869Z,41.01
2018-04-29T09:43:51.887Z,40.91
2018-04-29T09:44:51.884Z,41.01
2018-04-29T09:45:51.935Z,41.20
2018-04-29T09:46:51.902Z,41.20
2018-04-29T09:47:51.920Z,40.91
2018-04-29T09:48:51.923Z,41.01
2018-04-29T09:49:51.944Z,40.91
2018-04-29T09:50:51.975Z,40.53
2018-04-29T09:51:52.006Z,41.20
2018-04-29T09:52:51.990Z,40.91
2018-04-29T09:53:52.000Z,40.81
2018-04-29T09:54:52.014Z,40.81
2018-04-29T09:55:52.022Z,40.63
2018-04-29T09:56:52.071Z,40.26
2018-04-29T09:57:52.055Z,39.66
2018-04-29T09:58:52.084Z,40.26
2018-04-29T09:59:52.104Z,39.59
2018-04-29T10:00:52.164Z,39.59
2018-04-29T10:01:52.098Z,39.59
2018-04-29T10:02:52.187Z,40.16
2018-04-29T10:03:52.128Z,39.78
2018-04-29T10:04:52.159Z,38.53
2018-04-29T10:05:52.183Z,39.01
2018-04-29T10:06:52.177Z,38.62
2018-04-29T10:07:52.217Z,38.72
2018-04-29T10:08:52.202Z,39.59
2018-04-29T10:09:52.222Z,39.59
2018-04-29T10:10:52.230Z,39.11
2018-04-29T10:11:52.240Z,39.20
2018-04-29T10:12:52.276Z,39.39
2018-04-29T10:13:52.281Z,39.29
2018-04-29T10:14:52.289Z,39.49
2018-04-29T10:15:52.309Z,39.59
2018-04-29T10:16:52.309Z,39.39
2018-04-29T10:17:52.337Z,39.11
2018-04-29T10:18:52.366Z,39.11
2018-04-29T10:19:52.371Z,38.91
2018-04-29T10:20:52.393Z,38.91
2018-04-29T10:21:52.392Z,38.62
2018-04-29T10:22:52.518Z,39.49
2018-04-29T10:23:52.410Z,39.68
2018-04-29T10:24:52.456Z,39.59
2018-04-29T10:25:52.421Z,40.55
2018-04-29T10:26:52.449Z,39.20
2018-04-29T10:27:52.463Z,38.91
2018-04-29T10:28:52.520Z,39.68
2018-04-29T10:29:52.492Z,39.11
2018-04-29T10:30:52.494Z,39.20
2018-04-29T10:31:52.536Z,39.61
2018-04-29T10:32:52.617Z,39.79
2018-04-29T10:33:52.609Z,38.54
2018-04-29T10:34:52.563Z,39.03
2018-04-29T10:35:52.593Z,38.93
2018-04-29T10:36:52.596Z,38.74
2018-04-29T10:37:52.635Z,38.72
2018-04-29T10:38:52.604Z,38.81
2018-04-29T10:39:52.627Z,38.83
2018-04-29T10:40:52.639Z,39.01
2018-04-29T10:41:52.671Z,39.12
2018-04-29T10:42:52.741Z,39.31
2018-04-29T10:43:52.697Z,38.83
2018-04-29T10:44:52.694Z,38.83
2018-04-29T10:45:52.716Z,39.51
2018-04-29T10:46:52.768Z,39.41
2018-04-29T10:47:52.792Z,39.12
2018-04-29T10:48:52.741Z,39.31
2018-04-29T10:49:52.765Z,39.03
2018-04-29T10:50:52.808Z,38.93
2018-04-29T10:51:52.784Z,38.54
2018-04-29T10:52:52.846Z,39.03
2018-04-29T10:53:52.815Z,39.12
2018-04-29T10:54:52.826Z,39.03
2018-04-29T10:55:52.845Z,38.93
2018-04-29T10:56:52.862Z,38.93
2018-04-29T10:57:52.935Z,39.31
2018-04-29T10:58:52.910Z,39.61
2018-04-29T10:59:52.897Z,39.22
2018-04-29T11:00:52.910Z,39.22
2018-04-29T11:01:52.996Z,39.62
2018-04-29T11:02:52.950Z,39.04
2018-04-29T11:03:52.977Z,39.24
2018-04-29T11:04:52.986Z,39.04
2018-04-29T11:05:53.027Z,39.24
2018-04-29T11:06:53.051Z,39.34
2018-04-29T11:07:53.008Z,38.76
2018-04-29T11:08:53.045Z,38.28
2018-04-29T11:09:53.047Z,38.76
2018-04-29T11:10:53.067Z,38.76
2018-04-29T11:11:53.103Z,38.66
2018-04-29T11:12:53.159Z,37.98
2018-04-29T11:13:53.112Z,37.70
2018-04-29T11:14:53.122Z,38.08
2018-04-29T11:15:53.128Z,38.28
2018-04-29T11:16:53.170Z,38.18
2018-04-29T11:17:53.196Z,38.56
2018-04-29T11:18:53.166Z,37.41
2018-04-29T11:19:53.197Z,38.08
2018-04-29T11:20:53.194Z,37.98
2018-04-29T11:21:53.210Z,38.08
2018-04-29T11:22:53.273Z,38.28
2018-04-29T11:23:53.273Z,38.08
2018-04-29T11:24:53.271Z,38.66
2018-04-29T11:25:53.275Z,38.66
2018-04-29T11:26:53.292Z,38.18
2018-04-29T11:27:53.350Z,37.98
2018-04-29T11:28:53.306Z,38.76
2018-04-29T11:29:53.332Z,38.08
2018-04-29T11:30:53.348Z,38.76
2018-04-29T11:31:53.359Z,38.66
2018-04-29T11:32:53.400Z,39.06
2018-04-29T11:33:53.423Z,38.76
2018-04-29T11:34:53.405Z,38.46
2018-04-29T11:35:53.437Z,39.16
2018-04-29T11:36:53.437Z,38.87
2018-04-29T11:37:53.506Z,39.64
2018-04-29T11:38:53.487Z,39.36
2018-04-29T11:39:53.495Z,39.45
2018-04-29T11:40:53.520Z,38.68
2018-04-29T11:41:53.511Z,38.78
2018-04-29T11:42:53.641Z,39.26
2018-04-29T11:43:53.531Z,39.06
2018-04-29T11:44:53.547Z,39.16
2018-04-29T11:45:53.587Z,38.20
2018-04-29T11:46:53.568Z,38.68
2018-04-29T11:47:53.634Z,38.68
2018-04-29T11:48:53.604Z,38.39
2018-04-29T11:49:53.651Z,38.78
2018-04-29T11:50:53.654Z,38.87
2018-04-29T11:51:53.667Z,39.26
2018-04-29T11:52:53.699Z,39.84
2018-04-29T11:53:53.726Z,39.06
2018-04-29T11:54:53.692Z,39.64
2018-04-29T11:55:53.708Z,40.03
2018-04-29T11:56:53.725Z,39.74
2018-04-29T11:57:53.723Z,39.74
2018-04-29T11:58:53.790Z,39.37
2018-04-29T11:59:53.788Z,39.64
2018-04-29T12:00:53.771Z,39.86
2018-04-29T12:01:53.922Z,39.76
2018-04-29T12:02:53.808Z,38.70
2018-04-29T12:03:53.830Z,38.99
2018-04-29T12:04:53.857Z,38.68
2018-04-29T12:05:53.841Z,38.51
2018-04-29T12:06:53.891Z,39.36
2018-04-29T12:07:53.894Z,39.09
2018-04-29T12:08:53.897Z,38.58
2018-04-29T12:09:53.984Z,38.70
2018-04-29T12:10:53.914Z,38.41
2018-04-29T12:11:53.997Z,38.21
2018-04-29T12:12:53.974Z,38.60
2018-04-29T12:13:53.969Z,38.70
2018-04-29T12:14:53.994Z,38.70
2018-04-29T12:15:53.993Z,39.09
2018-04-29T12:16:54.026Z,39.37
2018-04-29T12:17:54.061Z,39.47
2018-04-29T12:18:54.048Z,39.66
2018-04-29T12:19:54.063Z,39.66
2018-04-29T12:20:54.069Z,38.70
2018-04-29T12:21:54.087Z,38.60
2018-04-29T12:22:54.161Z,38.60
2018-04-29T12:23:54.112Z,38.41
2018-04-29T12:24:54.145Z,38.31
2018-04-29T12:25:54.127Z,38.51
2018-04-29T12:26:54.174Z,38.79
2018-04-29T12:27:54.228Z,38.41
2018-04-29T12:28:54.183Z,38.60
2018-04-29T12:29:54.196Z,38.51
2018-04-29T12:30:54.226Z,38.60
2018-04-29T12:31:54.235Z,38.51
2018-04-29T12:32:54.279Z,38.99
2018-04-29T12:33:54.280Z,38.51
2018-04-29T12:34:54.287Z,38.41
2018-04-29T12:35:54.286Z,38.43
2018-04-29T12:36:54.296Z,38.14
2018-04-29T12:37:54.423Z,37.75
2018-04-29T12:38:54.331Z,38.53
2018-04-29T12:39:54.419Z,38.53
2018-04-29T12:40:54.397Z,37.85
2018-04-29T12:41:54.379Z,38.53
2018-04-29T12:42:54.515Z,38.43
2018-04-29T12:43:54.435Z,38.23
2018-04-29T12:44:54.532Z,38.33
2018-04-29T12:45:54.433Z,37.46
2018-04-29T12:46:54.559Z,38.23
2018-04-29T12:47:54.572Z,37.08
2018-04-29T12:48:54.489Z,36.79
2018-04-29T12:49:54.499Z,37.46
2018-04-29T12:50:54.518Z,37.17
2018-04-29T12:51:54.550Z,37.75
2018-04-29T12:52:54.560Z,37.65